KCOS/COS METAR and TAF weather

Enter ICAO airport designator
Station Type Date Time Source
KCOS METAR 2018/01/23 00:54 UTC NOAA

KCOS 230054Z 35005KT 10SM FEW220 02/M16 A3006 RMK AO2 SLP221 T00171156


Station Type Date Time Source
KCOS Decoded METAR 2018/01/23 00:54 UTC NOAA

COLORADO SPRINGS MUNI, CO, United States (KCOS) 38-49N 104-43W 1856M
Jan 22, 2018 - 07:54 PM EST / 2018.01.23 0054 UTC
Wind: from the N (350 degrees) at 6 MPH (5 KT):0
Visibility: 10 mile(s):0
Sky conditions: mostly clear
Temperature: 35.1 F (1.7 C)
Dew Point: 3.9 F (-15.6 C)
Relative Humidity: 26%
Pressure (altimeter): 30.06 in. Hg (1017 hPa)
ob: KCOS 230054Z 35005KT 10SM FEW220 02/M16 A3006 RMK AO2 SLP221 T00171156
cycle: 1

Station Type Date Time Source
KCOS TAF 2018/01/22 18:30 UTC NOAA

TAF KCOS 221728Z 2218/2318 33014KT P6SM SKC
TEMPO 2218/2222 33015G25KT
FM222200 36007KT P6SM SKC


Example: see airport list